Terminal Aerodrome Forecast
Issued by NWS

Home | Current Version | Previous Version | Text Only | Print | Product List | Glossary On
Versions: 1 2 3 4 5 6 7 8 9 10 11 12 13
000
FTUS45 KPIH 211700
TAFSUN
TAF
KSUN 211720Z 2118/2218 14006KT P6SM SCT070 SCT200
     FM212100 22010KT P6SM -SHRA VCTS BKN050CB BKN100
     FM220300 31007KT P6SM SCT060 SCT150
     FM221100 31005KT P6SM -SHRA BKN060 OVC150=

USA.gov is the U.S. government's official web portal to all federal, state and local government web resources and services.